Airfield :
LOGIN :

Register | Disclaimer

   EN    FR    IT 

 










Legend :    VFR   Marginal VFR   IFR   Intensive IFR   Very Intensive IFR
Visi :
Ceiling :
>= 8 km
>= 3000ft
5 to 8 km
1000 to 3000 ft
1500m to 5 km
500 to 1000 ft
800 to 1500m
200 to 500 ft
< 800m
< 200 ft
Symbols :   Thunderstorms  Fog  Heavy snow  Heavy precipitations  Wind > 20 kt
SIGMETs :     Misc.  Thunderstorms  Icing  Turbulence  Mountain Waves  Volcanic Ashes







- Airport Elevation : 1306 ft
- IATA code : ACH


LSZR - Alten Rhein

CURRENT METAR :
  • 301220Z 29007KT CAVOK 15/07 Q1025 NOSIG RMK J

EXPIRED METARs :
  • 301150Z 28005KT CAVOK 14/08 Q1026 NOSIG RMK I
  • 301120Z 28005KT CAVOK 14/08 Q1026 NOSIG RMK I
  • 301050Z 28005KT 260V320 CAVOK 12/08 Q1027 NOSIG RMK H
  • 301020Z 28005KT 260V320 CAVOK 12/08 Q1027 NOSIG RMK H
  • 300950Z 30005KT 270V330 CAVOK 11/07 Q1027 NOSIG RMK G
  • 300920Z 30005KT 270V330 CAVOK 11/07 Q1027 NOSIG RMK G

TAF TAF LSZR
Valid from the 30 at 12:00 until the 30 at 21:00 UTC


301125Z 3012/3021 28005KT CAVOK
ATIS : +41 71 858 51 66
No reported NOTAMs for that airfield.



MET'MAP, your aeronautical weather chart ! - Copyright ORBIFLY December 2007 - Disclaimer

ORBIFLY MET'MAP TEAM :

Programming & Development : Alexandra Zaïnal
Concept & Development : Baudouin d'Aumeries
Co-Development & Prog : Marc-Olivier Méhu
Technical & hardware support : Manuel Goepfert

Contact : metmap@orbifly.com




SOURCES & CREDITS :

   NOAA